sensor_id;sensor_type;location;lat;lon;timestamp;P1;durP1;ratioP1;P2;durP2;ratioP2
2650;SDS011;1335;48.180;16.342;2024-03-23T00:52:34;6.00;;;5.37;;
2650;SDS011;1335;48.180;16.342;2024-03-23T00:55:01;7.93;;;5.23;;
2650;SDS011;1335;48.180;16.342;2024-03-23T00:57:28;6.37;;;5.77;;
2650;SDS011;1335;48.180;16.342;2024-03-23T00:59:55;13.13;;;6.23;;
2650;SDS011;1335;48.180;16.342;2024-03-23T01:02:21;8.00;;;6.50;;
2650;SDS011;1335;48.180;16.342;2024-03-23T01:04:48;7.10;;;6.10;;
2650;SDS011;1335;48.180;16.342;2024-03-23T01:07:15;7.93;;;7.17;;
2650;SDS011;1335;48.180;16.342;2024-03-23T01:09:43;6.40;;;5.80;;
2650;SDS011;1335;48.180;16.342;2024-03-23T01:12:10;7.30;;;6.07;;
2650;SDS011;1335;48.180;16.342;2024-03-23T01:14:37;9.63;;;6.03;;
2650;SDS011;1335;48.180;16.342;2024-03-23T01:17:03;8.27;;;5.20;;
2650;SDS011;1335;48.180;16.342;2024-03-23T01:19:30;6.53;;;5.37;;
2650;SDS011;1335;48.180;16.342;2024-03-23T01:21:57;5.90;;;5.40;;
2650;SDS011;1335;48.180;16.342;2024-03-23T01:24:24;5.97;;;5.40;;
2650;SDS011;1335;48.180;16.342;2024-03-23T01:26:52;8.40;;;5.87;;
2650;SDS011;1335;48.180;16.342;2024-03-23T01:29:19;6.90;;;5.37;;
2650;SDS011;1335;48.180;16.342;2024-03-23T01:31:45;6.83;;;6.13;;
2650;SDS011;1335;48.180;16.342;2024-03-23T01:34:13;7.13;;;6.20;;
2650;SDS011;1335;48.180;16.342;2024-03-23T01:36:39;9.30;;;7.10;;
2650;SDS011;1335;48.180;16.342;2024-03-23T01:39:07;6.63;;;5.87;;
2650;SDS011;1335;48.180;16.342;2024-03-23T01:41:34;7.80;;;5.60;;
2650;SDS011;1335;48.180;16.342;2024-03-23T01:44:05;6.10;;;5.50;;
2650;SDS011;1335;48.180;16.342;2024-03-23T01:46:32;5.57;;;5.10;;
2650;SDS011;1335;48.180;16.342;2024-03-23T01:48:59;6.63;;;5.67;;
2650;SDS011;1335;48.180;16.342;2024-03-23T01:51:26;8.27;;;6.10;;
2650;SDS011;1335;48.180;16.342;2024-03-23T01:53:54;5.93;;;5.43;;
2650;SDS011;1335;48.180;16.342;2024-03-23T01:56:20;8.00;;;6.03;;
2650;SDS011;1335;48.180;16.342;2024-03-23T01:58:48;5.90;;;5.30;;
2650;SDS011;1335;48.180;16.342;2024-03-23T02:01:16;7.57;;;5.40;;
2650;SDS011;1335;48.180;16.342;2024-03-23T02:03:44;9.07;;;6.30;;
2650;SDS011;1335;48.180;16.342;2024-03-23T02:06:10;6.03;;;5.43;;
2650;SDS011;1335;48.180;16.342;2024-03-23T02:08:38;10.10;;;5.70;;
2650;SDS011;1335;48.180;16.342;2024-03-23T02:11:05;5.60;;;5.10;;
2650;SDS011;1335;48.180;16.342;2024-03-23T02:13:32;5.87;;;5.37;;
2650;SDS011;1335;48.180;16.342;2024-03-23T02:15:58;9.33;;;6.27;;
2650;SDS011;1335;48.180;16.342;2024-03-23T02:18:27;5.37;;;4.87;;
2650;SDS011;1335;48.180;16.342;2024-03-23T02:20:53;5.70;;;5.20;;
2650;SDS011;1335;48.180;16.342;2024-03-23T02:23:22;5.27;;;4.73;;
2650;SDS011;1335;48.180;16.342;2024-03-23T02:25:49;6.10;;;5.60;;
2650;SDS011;1335;48.180;16.342;2024-03-23T02:28:18;9.03;;;5.80;;
2650;SDS011;1335;48.180;16.342;2024-03-23T02:30:44;6.17;;;5.60;;
2650;SDS011;1335;48.180;16.342;2024-03-23T02:33:11;6.50;;;4.97;;
2650;SDS011;1335;48.180;16.342;2024-03-23T02:35:38;5.50;;;5.00;;
2650;SDS011;1335;48.180;16.342;2024-03-23T02:38:05;8.73;;;4.80;;
2650;SDS011;1335;48.180;16.342;2024-03-23T02:40:33;5.83;;;5.30;;
2650;SDS011;1335;48.180;16.342;2024-03-23T02:43:02;8.57;;;6.10;;
2650;SDS011;1335;48.180;16.342;2024-03-23T02:45:28;5.73;;;5.13;;
2650;SDS011;1335;48.180;16.342;2024-03-23T02:47:55;4.70;;;4.30;;
2650;SDS011;1335;48.180;16.342;2024-03-23T02:50:22;7.30;;;5.87;;
2650;SDS011;1335;48.180;16.342;2024-03-23T02:52:49;6.80;;;5.00;;
2650;SDS011;1335;48.180;16.342;2024-03-23T02:55:15;6.50;;;5.67;;
2650;SDS011;1335;48.180;16.342;2024-03-23T02:57:44;6.70;;;5.17;;
2650;SDS011;1335;48.180;16.342;2024-03-23T03:00:11;6.60;;;5.60;;
2650;SDS011;1335;48.180;16.342;2024-03-23T03:02:38;5.33;;;4.40;;
2650;SDS011;1335;48.180;16.342;2024-03-23T03:05:05;5.77;;;5.10;;
2650;SDS011;1335;48.180;16.342;2024-03-23T03:07:34;6.73;;;5.20;;
2650;SDS011;1335;48.180;16.342;2024-03-23T03:10:00;5.83;;;5.13;;
2650;SDS011;1335;48.180;16.342;2024-03-23T03:12:28;6.10;;;5.50;;
2650;SDS011;1335;48.180;16.342;2024-03-23T03:14:56;5.13;;;4.73;;
2650;SDS011;1335;48.180;16.342;2024-03-23T03:17:23;6.37;;;5.10;;
2650;SDS011;1335;48.180;16.342;2024-03-23T03:19:50;6.67;;;5.73;;
2650;SDS011;1335;48.180;16.342;2024-03-23T03:22:20;5.43;;;4.93;;
2650;SDS011;1335;48.180;16.342;2024-03-23T03:24:47;5.97;;;5.37;;
2650;SDS011;1335;48.180;16.342;2024-03-23T03:27:14;6.10;;;5.50;;
2650;SDS011;1335;48.180;16.342;2024-03-23T03:29:40;5.73;;;5.20;;
2650;SDS011;1335;48.180;16.342;2024-03-23T03:32:09;6.47;;;5.37;;
2650;SDS011;1335;48.180;16.342;2024-03-23T03:34:35;5.70;;;5.20;;
2650;SDS011;1335;48.180;16.342;2024-03-23T03:37:02;7.33;;;5.37;;
2650;SDS011;1335;48.180;16.342;2024-03-23T03:39:29;6.80;;;5.10;;
2650;SDS011;1335;48.180;16.342;2024-03-23T03:41:56;6.00;;;5.13;;
2650;SDS011;1335;48.180;16.342;2024-03-23T03:44:23;7.63;;;5.50;;
2650;SDS011;1335;48.180;16.342;2024-03-23T03:46:50;6.50;;;5.80;;
2650;SDS011;1335;48.180;16.342;2024-03-23T03:49:18;6.60;;;5.83;;
2650;SDS011;1335;48.180;16.342;2024-03-23T03:51:45;6.63;;;5.40;;
2650;SDS011;1335;48.180;16.342;2024-03-23T03:54:11;5.23;;;4.70;;
2650;SDS011;1335;48.180;16.342;2024-03-23T03:56:39;5.27;;;4.83;;
2650;SDS011;1335;48.180;16.342;2024-03-23T03:59:05;7.57;;;5.60;;
2650;SDS011;1335;48.180;16.342;2024-03-23T04:01:32;6.30;;;5.73;;
2650;SDS011;1335;48.180;16.342;2024-03-23T04:03:58;9.57;;;6.00;;
2650;SDS011;1335;48.180;16.342;2024-03-23T04:06:27;6.87;;;6.17;;
2650;SDS011;1335;48.180;16.342;2024-03-23T04:08:53;13.73;;;5.70;;
2650;SDS011;1335;48.180;16.342;2024-03-23T04:11:21;8.80;;;5.50;;
2650;SDS011;1335;48.180;16.342;2024-03-23T04:13:47;8.37;;;5.40;;
2650;SDS011;1335;48.180;16.342;2024-03-23T04:16:24;8.50;;;6.37;;
2650;SDS011;1335;48.180;16.342;2024-03-23T04:18:50;9.07;;;7.27;;
2650;SDS011;1335;48.180;16.342;2024-03-23T04:21:18;6.33;;;5.40;;
2650;SDS011;1335;48.180;16.342;2024-03-23T04:23:45;5.40;;;4.90;;
2650;SDS011;1335;48.180;16.342;2024-03-23T04:26:13;12.23;;;5.60;;
2650;SDS011;1335;48.180;16.342;2024-03-23T04:28:39;6.93;;;5.10;;
2650;SDS011;1335;48.180;16.342;2024-03-23T04:31:06;5.57;;;5.07;;
2650;SDS011;1335;48.180;16.342;2024-03-23T04:33:33;5.10;;;4.60;;
2650;SDS011;1335;48.180;16.342;2024-03-23T04:36:00;5.90;;;5.00;;
2650;SDS011;1335;48.180;16.342;2024-03-23T04:38:26;5.50;;;5.00;;
2650;SDS011;1335;48.180;16.342;2024-03-23T04:40:56;5.83;;;5.23;;
2650;SDS011;1335;48.180;16.342;2024-03-23T04:43:23;7.43;;;5.60;;
2650;SDS011;1335;48.180;16.342;2024-03-23T04:45:49;5.50;;;4.37;;
2650;SDS011;1335;48.180;16.342;2024-03-23T04:48:19;6.00;;;5.20;;
2650;SDS011;1335;48.180;16.342;2024-03-23T04:50:46;5.03;;;4.53;;
2650;SDS011;1335;48.180;16.342;2024-03-23T04:53:14;7.23;;;4.60;;
2650;SDS011;1335;48.180;16.342;2024-03-23T04:55:41;5.57;;;5.10;;
2650;SDS011;1335;48.180;16.342;2024-03-23T04:58:09;6.60;;;5.20;;
2650;SDS011;1335;48.180;16.342;2024-03-23T05:00:36;6.00;;;5.50;;
2650;SDS011;1335;48.180;16.342;2024-03-23T05:03:03;8.07;;;5.30;;
2650;SDS011;1335;48.180;16.342;2024-03-23T05:05:29;6.03;;;5.43;;
2650;SDS011;1335;48.180;16.342;2024-03-23T05:07:57;5.37;;;4.80;;
2650;SDS011;1335;48.180;16.342;2024-03-23T05:10:23;20.27;;;4.97;;
2650;SDS011;1335;48.180;16.342;2024-03-23T05:12:50;6.70;;;6.00;;
2650;SDS011;1335;48.180;16.342;2024-03-23T05:15:18;7.10;;;4.87;;
2650;SDS011;1335;48.180;16.342;2024-03-23T05:17:45;6.00;;;4.93;;
2650;SDS011;1335;48.180;16.342;2024-03-23T05:20:12;5.77;;;4.93;;
2650;SDS011;1335;48.180;16.342;2024-03-23T05:22:39;6.23;;;4.63;;
2650;SDS011;1335;48.180;16.342;2024-03-23T05:25:06;7.47;;;5.33;;
2650;SDS011;1335;48.180;16.342;2024-03-23T05:27:34;9.83;;;5.10;;
2650;SDS011;1335;48.180;16.342;2024-03-23T05:30:01;8.10;;;5.30;;
2650;SDS011;1335;48.180;16.342;2024-03-23T05:32:30;6.97;;;4.93;;
2650;SDS011;1335;48.180;16.342;2024-03-23T05:34:56;5.80;;;5.20;;
2650;SDS011;1335;48.180;16.342;2024-03-23T05:37:24;5.30;;;4.90;;
2650;SDS011;1335;48.180;16.342;2024-03-23T05:39:50;5.47;;;4.97;;
2650;SDS011;1335;48.180;16.342;2024-03-23T05:42:18;8.93;;;4.97;;
2650;SDS011;1335;48.180;16.342;2024-03-23T05:44:45;5.30;;;4.57;;
2650;SDS011;1335;48.180;16.342;2024-03-23T05:47:12;5.07;;;4.50;;
2650;SDS011;1335;48.180;16.342;2024-03-23T05:49:42;6.07;;;5.27;;
2650;SDS011;1335;48.180;16.342;2024-03-23T05:52:10;9.47;;;5.30;;
2650;SDS011;1335;48.180;16.342;2024-03-23T05:54:36;10.93;;;5.80;;
2650;SDS011;1335;48.180;16.342;2024-03-23T05:57:04;5.97;;;5.40;;
2650;SDS011;1335;48.180;16.342;2024-03-23T05:59:32;7.30;;;6.27;;
2650;SDS011;1335;48.180;16.342;2024-03-23T06:01:59;8.23;;;6.53;;
2650;SDS011;1335;48.180;16.342;2024-03-23T06:04:26;8.47;;;5.60;;
2650;SDS011;1335;48.180;16.342;2024-03-23T06:06:54;7.83;;;7.13;;
2650;SDS011;1335;48.180;16.342;2024-03-23T06:09:22;9.03;;;7.00;;
2650;SDS011;1335;48.180;16.342;2024-03-23T06:11:50;8.00;;;7.17;;
2650;SDS011;1335;48.180;16.342;2024-03-23T06:14:17;9.50;;;6.70;;
2650;SDS011;1335;48.180;16.342;2024-03-23T06:16:44;10.10;;;6.10;;
2650;SDS011;1335;48.180;16.342;2024-03-23T06:19:10;6.57;;;5.97;;
2650;SDS011;1335;48.180;16.342;2024-03-23T06:21:37;6.80;;;6.13;;
2650;SDS011;1335;48.180;16.342;2024-03-23T06:24:10;6.83;;;5.83;;
2650;SDS011;1335;48.180;16.342;2024-03-23T06:26:37;7.30;;;6.60;;
2650;SDS011;1335;48.180;16.342;2024-03-23T06:29:03;9.87;;;7.07;;
2650;SDS011;1335;48.180;16.342;2024-03-23T06:31:31;7.17;;;6.47;;
2650;SDS011;1335;48.180;16.342;2024-03-23T06:33:57;7.13;;;6.40;;
2650;SDS011;1335;48.180;16.342;2024-03-23T06:36:24;10.97;;;5.70;;
2650;SDS011;1335;48.180;16.342;2024-03-23T06:38:51;6.80;;;6.10;;
2650;SDS011;1335;48.180;16.342;2024-03-23T06:41:20;7.20;;;6.50;;
2650;SDS011;1335;48.180;16.342;2024-03-23T06:43:46;8.60;;;7.57;;
2650;SDS011;1335;48.180;16.342;2024-03-23T06:46:13;9.47;;;7.70;;
2650;SDS011;1335;48.180;16.342;2024-03-23T06:48:39;9.13;;;8.23;;
2650;SDS011;1335;48.180;16.342;2024-03-23T06:51:07;9.50;;;8.50;;
2650;SDS011;1335;48.180;16.342;2024-03-23T06:53:34;8.70;;;7.83;;
2650;SDS011;1335;48.180;16.342;2024-03-23T06:56:01;11.33;;;8.03;;
2650;SDS011;1335;48.180;16.342;2024-03-23T06:58:29;11.00;;;8.00;;
2650;SDS011;1335;48.180;16.342;2024-03-23T07:00:56;9.00;;;8.10;;
2650;SDS011;1335;48.180;16.342;2024-03-23T07:03:22;9.70;;;8.70;;
2650;SDS011;1335;48.180;16.342;2024-03-23T07:05:51;16.40;;;8.63;;
2650;SDS011;1335;48.180;16.342;2024-03-23T07:08:17;9.73;;;8.73;;
2650;SDS011;1335;48.180;16.342;2024-03-23T07:10:47;10.73;;;9.20;;
2650;SDS011;1335;48.180;16.342;2024-03-23T07:13:13;12.67;;;8.80;;
2650;SDS011;1335;48.180;16.342;2024-03-23T07:15:43;10.07;;;8.13;;
2650;SDS011;1335;48.180;16.342;2024-03-23T07:18:10;9.67;;;8.77;;
2650;SDS011;1335;48.180;16.342;2024-03-23T07:20:37;11.27;;;10.17;;
2650;SDS011;1335;48.180;16.342;2024-03-23T07:23:03;10.83;;;9.83;;
2650;SDS011;1335;48.180;16.342;2024-03-23T07:25:31;10.30;;;8.90;;
2650;SDS011;1335;48.180;16.342;2024-03-23T07:27:57;13.60;;;11.03;;
2650;SDS011;1335;48.180;16.342;2024-03-23T07:30:24;11.27;;;9.50;;
2650;SDS011;1335;48.180;16.342;2024-03-23T07:32:53;12.10;;;10.77;;
2650;SDS011;1335;48.180;16.342;2024-03-23T07:35:20;10.60;;;9.60;;
2650;SDS011;1335;48.180;16.342;2024-03-23T07:37:46;10.70;;;9.60;;
2650;SDS011;1335;48.180;16.342;2024-03-23T07:40:14;10.67;;;9.77;;
2650;SDS011;1335;48.180;16.342;2024-03-23T07:42:40;10.20;;;8.80;;
2650;SDS011;1335;48.180;16.342;2024-03-23T07:45:08;10.10;;;9.10;;
2650;SDS011;1335;48.180;16.342;2024-03-23T07:47:34;11.27;;;9.37;;
2650;SDS011;1335;48.180;16.342;2024-03-23T07:50:04;10.47;;;9.47;;
2650;SDS011;1335;48.180;16.342;2024-03-23T07:52:30;11.37;;;10.20;;
2650;SDS011;1335;48.180;16.342;2024-03-23T07:54:57;9.93;;;8.93;;
2650;SDS011;1335;48.180;16.342;2024-03-23T07:57:23;9.93;;;8.80;;
2650;SDS011;1335;48.180;16.342;2024-03-23T07:59:51;9.30;;;8.10;;
2650;SDS011;1335;48.180;16.342;2024-03-23T08:02:17;8.70;;;7.70;;
2650;SDS011;1335;48.180;16.342;2024-03-23T08:04:44;9.53;;;8.67;;
2650;SDS011;1335;48.180;16.342;2024-03-23T08:07:12;9.53;;;7.73;;
2650;SDS011;1335;48.180;16.342;2024-03-23T08:09:39;7.60;;;6.90;;
2650;SDS011;1335;48.180;16.342;2024-03-23T08:12:06;8.67;;;7.30;;
2650;SDS011;1335;48.180;16.342;2024-03-23T08:14:33;8.33;;;7.63;;
2650;SDS011;1335;48.180;16.342;2024-03-23T08:16:59;7.50;;;6.80;;
2650;SDS011;1335;48.180;16.342;2024-03-23T08:19:27;7.63;;;6.93;;
2650;SDS011;1335;48.180;16.342;2024-03-23T08:21:53;8.73;;;7.30;;
2650;SDS011;1335;48.180;16.342;2024-03-23T08:24:22;7.77;;;6.97;;
2650;SDS011;1335;48.180;16.342;2024-03-23T08:26:48;7.17;;;6.47;;
2650;SDS011;1335;48.180;16.342;2024-03-23T08:29:15;6.67;;;6.17;;
2650;SDS011;1335;48.180;16.342;2024-03-23T08:31:42;5.10;;;4.80;;
2650;SDS011;1335;48.180;16.342;2024-03-23T08:34:09;5.23;;;4.90;;
2650;SDS011;1335;48.180;16.342;2024-03-23T08:36:35;7.97;;;5.17;;
2650;SDS011;1335;48.180;16.342;2024-03-23T08:39:02;5.07;;;4.67;;
2650;SDS011;1335;48.180;16.342;2024-03-23T08:41:30;5.00;;;4.60;;
2650;SDS011;1335;48.180;16.342;2024-03-23T08:43:57;4.30;;;3.90;;
2650;SDS011;1335;48.180;16.342;2024-03-23T08:46:24;4.93;;;4.17;;
2650;SDS011;1335;48.180;16.342;2024-03-23T08:48:51;4.67;;;4.10;;
2650;SDS011;1335;48.180;16.342;2024-03-23T08:51:18;4.10;;;3.70;;
2650;SDS011;1335;48.180;16.342;2024-03-23T08:53:45;5.53;;;4.10;;
2650;SDS011;1335;48.180;16.342;2024-03-23T08:56:12;4.93;;;3.80;;
2650;SDS011;1335;48.180;16.342;2024-03-23T08:58:40;4.83;;;3.30;;
2650;SDS011;1335;48.180;16.342;2024-03-23T09:01:08;6.30;;;4.20;;
2650;SDS011;1335;48.180;16.342;2024-03-23T09:03:34;3.70;;;3.40;;
2650;SDS011;1335;48.180;16.342;2024-03-23T09:06:02;4.00;;;3.70;;
2650;SDS011;1335;48.180;16.342;2024-03-23T09:08:28;4.73;;;4.27;;
2650;SDS011;1335;48.180;16.342;2024-03-23T09:10:56;3.73;;;3.30;;
2650;SDS011;1335;48.180;16.342;2024-03-23T09:13:22;4.40;;;3.10;;
2650;SDS011;1335;48.180;16.342;2024-03-23T09:15:51;3.03;;;2.83;;
2650;SDS011;1335;48.180;16.342;2024-03-23T09:18:21;3.50;;;3.03;;
2650;SDS011;1335;48.180;16.342;2024-03-23T09:20:49;2.77;;;2.57;;
2650;SDS011;1335;48.180;16.342;2024-03-23T09:23:15;4.50;;;2.70;;
2650;SDS011;1335;48.180;16.342;2024-03-23T09:25:42;2.60;;;2.40;;
2650;SDS011;1335;48.180;16.342;2024-03-23T09:28:09;3.40;;;2.17;;
2650;SDS011;1335;48.180;16.342;2024-03-23T09:30:36;2.30;;;2.13;;
2650;SDS011;1335;48.180;16.342;2024-03-23T09:33:08;3.53;;;2.53;;
2650;SDS011;1335;48.180;16.342;2024-03-23T09:35:36;2.90;;;2.70;;
2650;SDS011;1335;48.180;16.342;2024-03-23T09:38:03;2.70;;;2.50;;
2650;SDS011;1335;48.180;16.342;2024-03-23T09:40:32;2.53;;;2.30;;
2650;SDS011;1335;48.180;16.342;2024-03-23T09:42:58;4.77;;;2.57;;
2650;SDS011;1335;48.180;16.342;2024-03-23T09:45:26;4.90;;;2.80;;
2650;SDS011;1335;48.180;16.342;2024-03-23T09:47:53;3.37;;;2.30;;
2650;SDS011;1335;48.180;16.342;2024-03-23T09:50:22;1.83;;;1.73;;
2650;SDS011;1335;48.180;16.342;2024-03-23T09:52:49;2.67;;;1.90;;
2650;SDS011;1335;48.180;16.342;2024-03-23T09:55:16;4.30;;;2.73;;
2650;SDS011;1335;48.180;16.342;2024-03-23T09:57:43;2.77;;;2.23;;
2650;SDS011;1335;48.180;16.342;2024-03-23T10:00:10;2.47;;;2.27;;
2650;SDS011;1335;48.180;16.342;2024-03-23T10:02:37;7.33;;;2.60;;
2650;SDS011;1335;48.180;16.342;2024-03-23T10:05:05;2.80;;;2.10;;
2650;SDS011;1335;48.180;16.342;2024-03-23T10:07:47;2.67;;;2.50;;
2650;SDS011;1335;48.180;16.342;2024-03-23T10:10:15;2.60;;;1.87;;
2650;SDS011;1335;48.180;16.342;2024-03-23T10:12:43;3.13;;;2.40;;
2650;SDS011;1335;48.180;16.342;2024-03-23T10:15:15;2.50;;;2.00;;
2650;SDS011;1335;48.180;16.342;2024-03-23T10:17:43;2.53;;;1.83;;
2650;SDS011;1335;48.180;16.342;2024-03-23T10:20:11;2.23;;;2.03;;
2650;SDS011;1335;48.180;16.342;2024-03-23T10:22:37;6.10;;;2.30;;
2650;SDS011;1335;48.180;16.342;2024-03-23T10:25:09;2.57;;;2.30;;
2650;SDS011;1335;48.180;16.342;2024-03-23T10:27:36;3.07;;;1.97;;
2650;SDS011;1335;48.180;16.342;2024-03-23T10:30:07;4.43;;;2.10;;
2650;SDS011;1335;48.180;16.342;2024-03-23T10:32:34;2.53;;;1.80;;
2650;SDS011;1335;48.180;16.342;2024-03-23T10:35:14;2.10;;;1.90;;
2650;SDS011;1335;48.180;16.342;2024-03-23T10:37:40;2.13;;;1.87;;
2650;SDS011;1335;48.180;16.342;2024-03-23T10:40:11;2.37;;;2.17;;
2650;SDS011;1335;48.180;16.342;2024-03-23T10:42:38;1.57;;;1.40;;
2650;SDS011;1335;48.180;16.342;2024-03-23T10:45:06;2.50;;;1.93;;
2650;SDS011;1335;48.180;16.342;2024-03-23T10:47:33;2.10;;;1.93;;
2650;SDS011;1335;48.180;16.342;2024-03-23T10:50:01;1.63;;;1.53;;
2650;SDS011;1335;48.180;16.342;2024-03-23T10:52:27;2.00;;;1.63;;
2650;SDS011;1335;48.180;16.342;2024-03-23T10:54:54;1.83;;;1.73;;
2650;SDS011;1335;48.180;16.342;2024-03-23T10:57:25;2.83;;;1.80;;
2650;SDS011;1335;48.180;16.342;2024-03-23T10:59:54;1.57;;;1.47;;
2650;SDS011;1335;48.180;16.342;2024-03-23T11:02:21;1.50;;;1.40;;
2650;SDS011;1335;48.180;16.342;2024-03-23T11:04:49;3.60;;;1.93;;
2650;SDS011;1335;48.180;16.342;2024-03-23T11:07:30;2.60;;;1.30;;
2650;SDS011;1335;48.180;16.342;2024-03-23T11:09:58;1.20;;;1.10;;
2650;SDS011;1335;48.180;16.342;2024-03-23T11:12:29;1.30;;;1.20;;
2650;SDS011;1335;48.180;16.342;2024-03-23T11:15:01;6.33;;;2.00;;
2650;SDS011;1335;48.180;16.342;2024-03-23T11:17:28;2.70;;;1.27;;
2650;SDS011;1335;48.180;16.342;2024-03-23T11:19:58;1.57;;;1.30;;
2650;SDS011;1335;48.180;16.342;2024-03-23T11:22:40;2.57;;;1.10;;
2650;SDS011;1335;48.180;16.342;2024-03-23T11:25:14;2.20;;;1.33;;
2650;SDS011;1335;48.180;16.342;2024-03-23T11:27:42;4.43;;;1.63;;
2650;SDS011;1335;48.180;16.342;2024-03-23T11:30:13;5.73;;;1.27;;
2650;SDS011;1335;48.180;16.342;2024-03-23T11:32:40;3.80;;;1.60;;
2650;SDS011;1335;48.180;16.342;2024-03-23T11:35:08;3.63;;;1.60;;
2650;SDS011;1335;48.180;16.342;2024-03-23T11:37:35;2.10;;;1.43;;
2650;SDS011;1335;48.180;16.342;2024-03-23T11:40:16;4.60;;;1.50;;
2650;SDS011;1335;48.180;16.342;2024-03-23T11:42:44;1.67;;;1.30;;
2650;SDS011;1335;48.180;16.342;2024-03-23T11:45:11;2.70;;;1.30;;
2650;SDS011;1335;48.180;16.342;2024-03-23T11:47:39;6.37;;;1.90;;
2650;SDS011;1335;48.180;16.342;2024-03-23T11:50:06;1.60;;;1.40;;
2650;SDS011;1335;48.180;16.342;2024-03-23T11:52:33;3.07;;;1.70;;
2650;SDS011;1335;48.180;16.342;2024-03-23T11:55:04;3.93;;;2.20;;
2650;SDS011;1335;48.180;16.342;2024-03-23T11:57:30;3.77;;;1.40;;
2650;SDS011;1335;48.180;16.342;2024-03-23T11:59:59;1.73;;;1.30;;
2650;SDS011;1335;48.180;16.342;2024-03-23T12:02:25;4.83;;;1.90;;
2650;SDS011;1335;48.180;16.342;2024-03-23T12:04:52;2.73;;;1.50;;
2650;SDS011;1335;48.180;16.342;2024-03-23T12:07:19;4.23;;;1.63;;
2650;SDS011;1335;48.180;16.342;2024-03-23T12:09:48;2.60;;;1.50;;
2650;SDS011;1335;48.180;16.342;2024-03-23T12:12:28;3.73;;;2.03;;
2650;SDS011;1335;48.180;16.342;2024-03-23T12:15:02;1.63;;;1.53;;
2650;SDS011;1335;48.180;16.342;2024-03-23T12:17:28;1.60;;;1.47;;
2650;SDS011;1335;48.180;16.342;2024-03-23T12:19:56;4.77;;;1.90;;
2650;SDS011;1335;48.180;16.342;2024-03-23T12:22:22;2.10;;;1.40;;
2650;SDS011;1335;48.180;16.342;2024-03-23T12:24:49;2.80;;;1.50;;
2650;SDS011;1335;48.180;16.342;2024-03-23T12:27:16;2.43;;;2.00;;
2650;SDS011;1335;48.180;16.342;2024-03-23T12:29:43;2.33;;;1.40;;
2650;SDS011;1335;48.180;16.342;2024-03-23T12:32:12;5.50;;;1.50;;
2650;SDS011;1335;48.180;16.342;2024-03-23T12:34:40;3.33;;;1.87;;
2650;SDS011;1335;48.180;16.342;2024-03-23T12:37:06;2.63;;;1.30;;
2650;SDS011;1335;48.180;16.342;2024-03-23T12:39:34;1.83;;;1.63;;
2650;SDS011;1335;48.180;16.342;2024-03-23T12:42:00;2.60;;;2.00;;
2650;SDS011;1335;48.180;16.342;2024-03-23T12:44:29;4.10;;;1.70;;
2650;SDS011;1335;48.180;16.342;2024-03-23T12:46:55;3.83;;;1.60;;
2650;SDS011;1335;48.180;16.342;2024-03-23T12:49:24;4.67;;;2.20;;
2650;SDS011;1335;48.180;16.342;2024-03-23T12:51:53;3.80;;;1.80;;
2650;SDS011;1335;48.180;16.342;2024-03-23T12:54:20;10.13;;;2.20;;
2650;SDS011;1335;48.180;16.342;2024-03-23T12:56:47;6.23;;;1.97;;
2650;SDS011;1335;48.180;16.342;2024-03-23T12:59:14;8.90;;;2.07;;
2650;SDS011;1335;48.180;16.342;2024-03-23T13:01:41;4.90;;;2.17;;
2650;SDS011;1335;48.180;16.342;2024-03-23T13:04:09;5.10;;;1.60;;
2650;SDS011;1335;48.180;16.342;2024-03-23T13:06:37;2.50;;;1.40;;
2650;SDS011;1335;48.180;16.342;2024-03-23T13:09:05;4.13;;;1.77;;
2650;SDS011;1335;48.180;16.342;2024-03-23T13:11:31;1.97;;;1.07;;
2650;SDS011;1335;48.180;16.342;2024-03-23T13:13:58;2.27;;;1.00;;
2650;SDS011;1335;48.180;16.342;2024-03-23T13:16:25;2.30;;;1.10;;
2650;SDS011;1335;48.180;16.342;2024-03-23T13:18:52;1.23;;;0.90;;
2650;SDS011;1335;48.180;16.342;2024-03-23T13:21:18;6.70;;;1.27;;
2650;SDS011;1335;48.180;16.342;2024-03-23T13:23:47;4.93;;;1.00;;
2650;SDS011;1335;48.180;16.342;2024-03-23T13:26:15;3.23;;;0.83;;
2650;SDS011;1335;48.180;16.342;2024-03-23T13:28:42;3.50;;;1.00;;
2650;SDS011;1335;48.180;16.342;2024-03-23T13:31:09;1.10;;;0.87;;
2650;SDS011;1335;48.180;16.342;2024-03-23T13:33:37;0.87;;;0.57;;
2650;SDS011;1335;48.180;16.342;2024-03-23T13:36:03;0.80;;;0.73;;
2650;SDS011;1335;48.180;16.342;2024-03-23T13:38:31;3.93;;;0.73;;
2650;SDS011;1335;48.180;16.342;2024-03-23T13:40:59;0.60;;;0.60;;
2650;SDS011;1335;48.180;16.342;2024-03-23T13:43:27;2.10;;;0.70;;
2650;SDS011;1335;48.180;16.342;2024-03-23T13:45:54;0.77;;;0.70;;
2650;SDS011;1335;48.180;16.342;2024-03-23T13:48:22;1.60;;;1.00;;
2650;SDS011;1335;48.180;16.342;2024-03-23T13:50:56;1.33;;;0.70;;
2650;SDS011;1335;48.180;16.342;2024-03-23T13:53:23;0.73;;;0.60;;
2650;SDS011;1335;48.180;16.342;2024-03-23T13:55:50;1.43;;;0.93;;
2650;SDS011;1335;48.180;16.342;2024-03-23T13:58:19;2.20;;;0.67;;
2650;SDS011;1335;48.180;16.342;2024-03-23T14:00:45;0.90;;;0.80;;
2650;SDS011;1335;48.180;16.342;2024-03-23T14:03:13;1.63;;;0.67;;
2650;SDS011;1335;48.180;16.342;2024-03-23T14:05:39;0.90;;;0.90;;
2650;SDS011;1335;48.180;16.342;2024-03-23T14:08:07;1.80;;;0.60;;
2650;SDS011;1335;48.180;16.342;2024-03-23T14:10:34;0.93;;;0.67;;
2650;SDS011;1335;48.180;16.342;2024-03-23T14:13:01;1.10;;;0.63;;
2650;SDS011;1335;48.180;16.342;2024-03-23T14:15:29;1.50;;;0.63;;
2650;SDS011;1335;48.180;16.342;2024-03-23T14:17:57;7.60;;;1.20;;
2650;SDS011;1335;48.180;16.342;2024-03-23T14:20:23;0.70;;;0.70;;
2650;SDS011;1335;48.180;16.342;2024-03-23T14:22:51;0.70;;;0.50;;
2650;SDS011;1335;48.180;16.342;2024-03-23T14:25:18;0.70;;;0.70;;
2650;SDS011;1335;48.180;16.342;2024-03-23T14:27:47;1.47;;;1.00;;
2650;SDS011;1335;48.180;16.342;2024-03-23T14:30:14;2.33;;;1.00;;
2650;SDS011;1335;48.180;16.342;2024-03-23T14:32:43;1.50;;;1.13;;
2650;SDS011;1335;48.180;16.342;2024-03-23T14:35:09;1.73;;;1.40;;
2650;SDS011;1335;48.180;16.342;2024-03-23T14:37:37;1.07;;;1.00;;
2650;SDS011;1335;48.180;16.342;2024-03-23T14:40:04;0.90;;;0.87;;
2650;SDS011;1335;48.180;16.342;2024-03-23T14:42:31;1.33;;;0.93;;
2650;SDS011;1335;48.180;16.342;2024-03-23T14:44:58;2.10;;;1.13;;
2650;SDS011;1335;48.180;16.342;2024-03-23T14:47:26;1.03;;;0.80;;
2650;SDS011;1335;48.180;16.342;2024-03-23T14:49:53;1.70;;;0.90;;
2650;SDS011;1335;48.180;16.342;2024-03-23T14:52:21;1.37;;;1.07;;
2650;SDS011;1335;48.180;16.342;2024-03-23T14:54:47;1.40;;;1.13;;
2650;SDS011;1335;48.180;16.342;2024-03-23T14:57:15;1.00;;;1.00;;
2650;SDS011;1335;48.180;16.342;2024-03-23T14:59:44;1.90;;;0.77;;
2650;SDS011;1335;48.180;16.342;2024-03-23T15:02:11;2.50;;;1.20;;
2650;SDS011;1335;48.180;16.342;2024-03-23T15:04:38;1.00;;;0.90;;
2650;SDS011;1335;48.180;16.342;2024-03-23T15:07:08;1.73;;;0.70;;
2650;SDS011;1335;48.180;16.342;2024-03-23T15:09:35;0.73;;;0.73;;
2650;SDS011;1335;48.180;16.342;2024-03-23T15:12:02;1.50;;;0.77;;
2650;SDS011;1335;48.180;16.342;2024-03-23T15:14:29;0.60;;;0.50;;
2650;SDS011;1335;48.180;16.342;2024-03-23T15:16:56;0.77;;;0.77;;
2650;SDS011;1335;48.180;16.342;2024-03-23T15:19:23;0.60;;;0.40;;
2650;SDS011;1335;48.180;16.342;2024-03-23T15:21:50;1.10;;;0.80;;
2650;SDS011;1335;48.180;16.342;2024-03-23T15:24:18;0.90;;;0.80;;
2650;SDS011;1335;48.180;16.342;2024-03-23T15:26:46;1.03;;;0.70;;
2650;SDS011;1335;48.180;16.342;2024-03-23T15:29:14;1.37;;;0.60;;
2650;SDS011;1335;48.180;16.342;2024-03-23T15:31:43;1.67;;;0.80;;
2650;SDS011;1335;48.180;16.342;2024-03-23T15:34:10;1.00;;;0.90;;
2650;SDS011;1335;48.180;16.342;2024-03-23T15:36:39;0.83;;;0.50;;
2650;SDS011;1335;48.180;16.342;2024-03-23T15:39:06;1.03;;;1.00;;
2650;SDS011;1335;48.180;16.342;2024-03-23T15:41:35;2.50;;;0.80;;
2650;SDS011;1335;48.180;16.342;2024-03-23T15:44:02;1.90;;;1.50;;
2650;SDS011;1335;48.180;16.342;2024-03-23T15:46:29;1.20;;;0.70;;
2650;SDS011;1335;48.180;16.342;2024-03-23T15:48:55;0.70;;;0.60;;
2650;SDS011;1335;48.180;16.342;2024-03-23T15:51:23;0.90;;;0.70;;
2650;SDS011;1335;48.180;16.342;2024-03-23T15:53:56;1.57;;;0.70;;